.
WxDataArchive / Data Records for 2010-07-19
2010-07-18 July 2010 2010-07-20

Data Records for Monday, 19 July 2010

Time	Temp	Chill	HIndex	Humid	Dewpt	 Wind 	HiWind	WindDir	Rain 	Barom 
-----	----	-----	------	-----	-----	------	------	-------	-----	----- 
00:00	72.8	72.8	72.8	90	69.7	0	2	270	0.00	29.811 
00:05	72.8	72.8	72.8	90	69.7	0	2	270	0.00	29.811 
00:10	72.8	72.8	72.8	90	69.7	0	2	270	0.00	29.811 
00:15	72.8	72.8	72.8	90	69.7	0	2	270	0.00	29.805 
00:20	72.8	72.8	72.8	90	69.7	1	4	248	0.00	29.805 
00:25	72.8	72.8	72.8	90	69.7	1	4	270	0.00	29.805 
00:30	73.0	73.0	73.0	90	69.9	1	3	270	0.00	29.802 
00:35	73.0	73.0	73.0	90	69.9	0	2	270	0.00	29.802 
00:40	73.2	73.2	73.2	90	70.1	1	3	270	0.00	29.802 
00:45	73.2	73.2	73.2	90	70.1	1	2	292	0.00	29.802 
00:50	73.2	73.2	73.2	90	70.1	0	2	292	0.00	29.802 
00:55	73.0	73.0	73.0	90	69.9	0	2	292	0.00	29.802 
01:00	73.0	73.0	73.0	90	69.9	0	2	292	0.00	29.799 
01:05	73.0	73.0	73.0	90	69.9	0	4	292	0.00	29.799 
01:10	73.0	73.0	73.0	90	69.9	0	2	292	0.00	29.799 
01:15	72.8	72.8	72.8	90	69.7	0	1	292	0.00	29.796 
01:20	72.8	72.8	72.8	90	69.7	1	3	292	0.00	29.796 
01:25	72.8	72.8	72.8	90	69.7	1	2	292	0.00	29.796 
01:30	72.8	72.8	72.8	90	69.7	0	3	292	0.00	29.797 
01:35	72.8	72.8	72.8	91	70.0	0	2	292	0.00	29.797 
01:40	72.7	72.7	72.7	91	69.9	1	3	292	0.00	29.797 
01:45	72.7	72.7	72.7	91	69.9	0	1	225	0.00	29.802 
01:50	72.8	72.8	72.8	91	70.0	1	3	225	0.00	29.802 
01:55	72.8	72.8	72.8	91	70.0	0	3	225	0.00	29.802 
02:00	72.8	72.8	72.8	91	70.0	1	3	225	0.00	29.809 
02:05	72.8	72.8	72.8	90	69.7	1	4	225	0.00	29.809 
02:10	73.0	73.0	73.0	90	69.9	1	3	225	0.00	29.809 
02:15	73.0	73.0	73.0	90	69.9	1	3	225	0.00	29.810 
02:20	73.0	73.0	73.0	90	69.9	1	2	225	0.00	29.810 
02:25	73.0	73.0	73.0	90	69.9	0	4	225	0.00	29.810 
02:30	73.0	73.0	73.0	90	69.9	1	3	225	0.00	29.810 
02:35	73.0	73.0	73.0	90	69.9	1	3	225	0.00	29.810 
02:40	72.8	72.8	72.8	90	69.7	0	2	225	0.00	29.810 
02:45	72.8	72.8	72.8	90	69.7	0	3	225	0.00	29.811 
02:50	72.7	72.7	72.7	90	69.6	1	4	225	0.00	29.811 
02:55	72.7	72.7	72.7	90	69.6	0	3	225	0.00	29.811 
03:00	72.7	72.7	72.7	90	69.6	0	1	338	0.00	29.811 
03:05	72.5	72.5	72.5	91	69.7	0	2	338	0.00	29.811 
03:10	72.5	72.5	72.5	91	69.7	1	3	315	0.00	29.811 
03:15	72.5	72.5	72.5	91	69.7	1	3	315	0.00	29.812 
03:20	72.5	72.5	72.5	91	69.7	1	3	315	0.00	29.812 
03:25	72.3	72.3	72.3	91	69.5	1	3	315	0.00	29.812 
03:30	72.3	72.3	72.3	91	69.5	1	2	315	0.00	29.813 
03:35	72.3	72.3	72.3	92	69.8	1	3	315	0.00	29.813 
03:40	72.1	72.1	72.1	92	69.6	1	3	315	0.00	29.813 
03:45	72.1	72.1	72.1	92	69.6	1	3	315	0.00	29.813 
03:50	72.1	72.1	72.1	92	69.6	2	4	292	0.00	29.813 
03:55	72.1	72.1	72.1	92	69.6	1	3	292	0.00	29.813 
04:00	72.1	72.1	72.1	92	69.6	0	2	292	0.00	29.814 
04:05	72.0	72.0	72.0	92	69.5	0	2	292	0.00	29.814 
04:10	72.0	72.0	72.0	92	69.5	0	2	292	0.00	29.814 
04:15	71.8	71.8	71.8	92	69.3	0	1	292	0.00	29.819 
04:20	71.8	71.8	71.8	93	69.7	0	2	292	0.00	29.819 
04:25	71.8	71.8	71.8	93	69.7	1	2	292	0.00	29.819 
04:30	71.8	71.8	71.8	93	69.7	1	2	292	0.00	29.823 
04:35	71.6	71.6	71.6	93	69.5	1	4	292	0.00	29.823 
04:40	71.6	71.6	71.6	93	69.5	1	3	292	0.00	29.823 
04:45	71.6	71.6	71.6	93	69.5	0	2	292	0.00	29.827 
04:50	71.5	71.5	71.5	93	69.4	0	2	292	0.00	29.827 
04:55	71.5	71.5	71.5	94	69.7	1	3	292	0.00	29.827 
05:00	71.5	71.5	71.5	94	69.7	0	2	292	0.00	29.829 
05:05	71.3	71.3	71.3	94	69.5	0	2	292	0.00	29.829 
05:10	71.3	71.3	71.3	94	69.5	0	3	292	0.00	29.829 
05:15	71.3	71.3	71.3	94	69.5	0	2	292	0.00	29.843 
05:20	71.3	71.3	71.3	94	69.5	0	1	292	0.00	29.843 
05:25	71.1	71.1	71.1	94	69.3	0	1	292	0.00	29.843 
05:30	71.1	71.1	71.1	94	69.3	0	1	292	0.00	29.849 
05:35	70.9	70.9	70.9	94	69.1	0	1	292	0.00	29.849 
05:40	70.9	70.9	70.9	94	69.1	0	1	292	0.00	29.849 
05:45	70.9	70.9	70.9	94	69.1	0	1	292	0.00	29.856 
05:50	70.9	70.9	70.9	95	69.4	0	1	292	0.00	29.856 
05:55	70.9	70.9	70.9	95	69.4	0	2	292	0.00	29.856 
06:00	70.9	70.9	70.9	95	69.4	0	1	292	0.00	29.862 
06:05	70.9	70.9	70.9	95	69.4	0	1	292	0.00	29.862 
06:10	70.8	70.8	70.8	95	69.3	0	1	292	0.00	29.862 
06:15	70.8	70.8	70.8	95	69.3	0	1	292	0.00	29.863 
06:20	70.8	70.8	70.8	95	69.3	0	1	292	0.00	29.863 
06:25	70.8	70.8	70.8	95	69.3	0	1	292	0.00	29.863 
06:30	70.6	70.6	70.6	95	69.1	0	1	292	0.00	29.863 
06:35	70.6	70.6	70.6	95	69.1	0	1	292	0.00	29.863 
06:40	70.6	70.6	70.6	95	69.1	0	1	292	0.00	29.863 
06:45	70.4	70.4	70.4	95	68.9	0	0	---	0.00	29.865 
06:50	70.4	70.4	70.4	95	68.9	0	0	---	0.00	29.865 
06:55	70.4	70.4	70.4	95	68.9	0	1	292	0.00	29.865 
07:00	70.4	70.4	70.4	95	68.9	0	0	---	0.00	29.871 
07:05	70.4	70.4	70.4	95	68.9	0	1	292	0.00	29.871 
07:10	70.6	70.6	70.6	95	69.1	0	1	292	0.00	29.871 
07:15	70.8	70.8	70.8	95	69.3	0	1	292	0.00	29.876 
07:20	70.8	70.8	70.8	95	69.3	0	1	292	0.00	29.876 
07:25	70.8	70.8	70.8	95	69.3	0	2	292	0.00	29.876 
07:30	70.9	70.9	70.9	95	69.4	0	2	292	0.00	29.886 
07:35	70.9	70.9	70.9	95	69.4	1	3	292	0.00	29.886 
07:40	70.8	70.8	70.8	95	69.3	2	4	292	0.00	29.886 
07:45	70.8	70.8	70.8	94	69.0	1	4	292	0.00	29.887 
07:50	70.6	70.6	70.6	93	68.5	2	4	315	0.00	29.887 
07:55	70.9	70.9	70.9	92	68.5	1	4	270	0.00	29.887 
08:00	71.3	71.3	71.3	91	68.5	1	3	270	0.00	29.891 
08:05	71.5	71.5	71.5	89	68.1	1	3	315	0.00	29.891 
08:10	71.8	71.8	71.8	88	68.0	1	4	315	0.00	29.891 
08:15	72.1	72.1	72.1	87	68.0	1	3	315	0.00	29.896 
08:20	72.3	72.3	72.3	86	67.9	1	3	315	0.00	29.896 
08:25	72.5	72.5	72.5	84	67.4	0	1	315	0.00	29.896 
08:30	72.7	72.7	72.7	83	67.2	1	3	315	0.00	29.897 
08:35	72.8	72.8	72.8	84	67.7	0	1	315	0.00	29.897 
08:40	73.2	73.2	73.2	83	67.7	0	2	315	0.00	29.897 
08:45	73.3	73.3	73.3	82	67.5	0	2	315	0.00	29.899 
08:50	73.5	73.5	73.5	81	67.3	1	3	315	0.00	29.899 
08:55	73.7	73.7	73.7	80	67.1	0	2	315	0.00	29.899 
09:00	74.0	74.0	74.0	81	67.8	0	2	315	0.00	29.899 
09:05	74.4	74.4	74.4	78	67.1	0	2	315	0.00	29.899 
09:10	74.7	74.7	74.7	79	67.7	0	2	315	0.00	29.899 
09:15	74.9	74.9	74.9	77	67.2	1	3	315	0.00	29.898 
09:20	74.7	74.7	74.7	76	66.6	1	2	270	0.00	29.898 
09:25	74.9	74.9	74.9	77	67.2	1	4	270	0.00	29.898 
09:30	75.1	75.1	76.2	76	67.0	1	4	270	0.00	29.900 
09:35	75.3	75.3	76.4	76	67.2	1	2	270	0.00	29.900 
09:40	75.8	75.8	77.0	76	67.7	0	2	270	0.00	29.900 
09:45	76.1	76.1	77.5	75	67.6	1	3	270	0.00	29.898 
09:50	76.1	76.1	77.6	73	66.8	1	2	315	0.00	29.898 
09:55	76.3	76.3	77.8	73	67.0	1	2	315	0.00	29.898 
10:00	76.7	76.7	78.4	71	66.6	0	1	315	0.00	29.897 
10:05	77.2	77.2	79.0	72	67.5	0	1	315	0.00	29.897 
10:10	77.0	77.0	78.8	70	66.4	1	4	315	0.00	29.897 
10:15	77.2	77.2	79.0	70	66.6	1	3	292	0.00	29.887 
10:20	77.4	77.4	79.3	70	66.8	1	3	292	0.00	29.887 
10:25	77.7	77.7	79.6	70	67.1	0	2	292	0.00	29.887 
10:30	77.9	77.9	79.9	69	66.9	1	3	292	0.00	29.893 
10:35	77.9	77.9	79.9	70	67.3	0	1	292	0.00	29.893 
10:40	78.3	78.3	80.3	68	66.8	1	3	292	0.00	29.893 
10:45	78.3	78.3	80.4	69	67.3	0	1	292	0.00	29.895 
10:50	78.5	78.5	80.5	66	66.2	2	3	292	0.00	29.895 
10:55	78.5	78.5	80.6	68	67.0	1	3	292	0.00	29.895 
11:00	78.6	78.6	80.7	67	66.7	1	2	292	0.00	29.898 
11:05	78.6	78.6	80.6	65	65.8	1	2	315	0.00	29.898 
11:10	79.0	79.0	81.2	67	67.1	0	3	315	0.00	29.898 
11:15	79.4	79.4	81.6	66	67.0	1	4	315	0.00	29.900 
11:20	79.4	79.4	81.6	66	67.0	1	4	292	0.00	29.900 
11:25	79.2	79.2	81.3	65	66.4	1	5	292	0.00	29.900 
11:30	79.6	79.6	82.1	68	68.1	0	1	292	0.00	29.910 
11:35	79.9	79.9	82.2	65	67.1	0	2	292	0.00	29.910 
11:40	80.7	80.7	83.4	65	67.8	1	3	315	0.00	29.910 
11:45	80.9	80.9	83.4	63	67.1	1	3	315	0.00	29.911 
11:50	81.1	81.1	84.0	65	68.2	0	2	315	0.00	29.911 
11:55	80.9	80.9	83.2	62	66.6	1	4	292	0.00	29.911 
12:00	81.1	81.1	83.6	63	67.3	1	2	292	0.00	29.906 
12:05	81.4	81.4	83.8	61	66.6	1	4	292	0.00	29.906 
12:10	81.4	81.4	83.9	62	67.1	2	4	292	0.00	29.906 
12:15	81.6	81.6	84.0	61	66.8	1	3	292	0.00	29.908 
12:20	81.8	81.8	84.1	60	66.5	1	3	292	0.00	29.908 
12:25	82.2	82.2	85.1	62	67.9	1	3	292	0.00	29.908 
12:30	82.8	82.8	85.4	59	67.0	0	3	270	0.00	29.907 
12:35	82.6	82.6	85.3	60	67.3	1	4	315	0.00	29.907 
12:40	82.4	82.4	85.4	62	68.0	1	4	292	0.00	29.907 
12:45	82.4	82.4	84.6	58	66.1	2	4	292	0.00	29.906 
12:50	82.6	82.6	85.1	59	66.8	1	4	292	0.00	29.906 
12:55	82.8	82.8	86.1	62	68.4	1	4	270	0.00	29.906 
13:00	83.0	83.0	85.5	58	66.7	0	2	270	0.00	29.905 
13:05	82.6	82.6	84.9	58	66.3	2	4	292	0.00	29.905 
13:10	83.0	83.0	85.5	58	66.7	1	3	292	0.00	29.905 
13:15	83.0	83.0	85.1	56	65.7	1	4	292	0.00	29.896 
13:20	83.2	83.2	85.8	58	66.9	1	3	292	0.00	29.896 
13:25	83.4	83.4	85.8	57	66.5	1	4	292	0.00	29.896 
13:30	83.6	83.6	85.7	55	65.7	1	3	315	0.00	29.896 
13:35	83.6	83.6	86.1	57	66.7	1	4	292	0.00	29.896 
13:40	84.1	84.1	86.9	57	67.2	0	3	292	0.00	29.896 
13:45	84.3	84.3	86.7	55	66.3	1	3	292	0.00	29.896 
13:50	84.5	84.5	86.7	54	66.0	1	4	292	0.00	29.896 
13:55	84.5	84.5	87.0	55	66.5	1	3	292	0.00	29.896 
14:00	84.9	84.9	86.8	52	65.3	1	4	270	0.00	29.901 
14:05	84.9	84.9	86.6	51	64.7	2	3	270	0.00	29.901 
14:10	85.1	85.1	87.4	53	66.0	1	6	292	0.00	29.901 
14:15	84.9	84.9	87.3	54	66.4	1	6	315	0.00	29.908 
14:20	85.1	85.1	87.9	55	67.1	2	5	315	0.00	29.908 
14:25	85.1	85.1	87.4	53	66.0	1	3	315	0.00	29.908 
14:30	85.3	85.3	87.7	53	66.2	2	4	315	0.00	29.907 
14:35	84.9	84.9	87.9	56	67.4	1	5	270	0.00	29.907 
14:40	84.5	84.5	86.7	54	66.0	2	5	270	0.00	29.907 
14:45	84.9	84.9	87.3	54	66.4	2	4	270	0.00	29.909 
14:50	85.3	85.3	87.4	52	65.6	2	3	292	0.00	29.909 
14:55	85.1	85.1	86.9	51	64.9	2	4	292	0.00	29.909 
15:00	84.9	84.9	87.3	54	66.4	1	3	315	0.00	29.913 
15:05	85.1	85.1	86.9	51	64.9	1	5	292	0.00	29.913 
15:10	85.5	85.5	88.3	54	66.9	1	3	315	0.00	29.913 
15:15	85.5	85.5	87.7	52	65.8	1	3	292	0.00	29.916 
15:20	85.7	85.7	88.3	53	66.6	1	3	270	0.00	29.916 
15:25	85.3	85.3	88.0	54	66.7	2	5	270	0.00	29.916 
15:30	85.1	85.1	87.7	54	66.6	1	5	338	0.00	29.918 
15:35	84.7	84.7	87.3	55	66.7	1	3	270	0.00	29.918 
15:40	85.1	85.1	87.7	54	66.6	1	4	292	0.00	29.918 
15:45	85.3	85.3	87.7	53	66.2	1	4	292	0.00	29.911 
15:50	84.9	84.9	86.8	52	65.3	1	4	270	0.00	29.911 
15:55	84.7	84.7	86.5	52	65.1	1	3	292	0.00	29.911 
16:00	85.3	85.3	88.0	54	66.7	1	2	292	0.00	29.908 
16:05	85.9	85.9	88.6	53	66.7	1	3	292	0.00	29.908 
16:10	86.3	86.3	89.3	53	67.1	1	2	292	0.00	29.908 
16:15	86.5	86.5	88.3	49	65.0	1	3	292	0.00	29.904 
16:20	85.7	85.7	87.7	51	65.5	1	3	292	0.00	29.904 
16:25	84.9	84.9	86.8	52	65.3	0	2	270	0.00	29.904 
16:30	85.1	85.1	87.7	54	66.6	0	2	270	0.00	29.910 
16:35	85.1	85.1	87.4	53	66.0	1	2	270	0.00	29.910 
16:40	84.7	84.7	87.0	54	66.2	1	3	315	0.00	29.910 
16:45	84.5	84.5	87.0	55	66.5	1	4	315	0.00	29.907 
16:50	84.3	84.3	86.2	53	65.3	0	2	270	0.00	29.907 
16:55	84.1	84.1	86.2	54	65.6	0	2	292	0.00	29.907 
17:00	84.5	84.5	86.7	54	66.0	1	4	292	0.00	29.911 
17:05	84.9	84.9	87.3	54	66.4	2	4	270	0.00	29.911 
17:10	85.3	85.3	87.7	53	66.2	1	3	292	0.00	29.911 
17:15	85.5	85.5	87.7	52	65.8	2	4	315	0.00	29.911 
17:20	85.5	85.5	87.4	51	65.3	1	3	315	0.00	29.911 
17:25	85.7	85.7	86.9	48	63.7	1	2	315	0.00	29.911 
17:30	85.9	85.9	87.5	49	64.5	1	2	292	0.00	29.903 
17:35	85.9	85.9	87.2	48	63.9	1	3	292	0.00	29.903 
17:40	85.9	85.9	87.5	49	64.5	1	3	292	0.00	29.903 
17:45	85.7	85.7	86.9	48	63.7	1	4	292	0.00	29.896 
17:50	85.5	85.5	87.2	50	64.7	1	2	292	0.00	29.896 
17:55	85.7	85.7	87.4	50	64.9	0	2	292	0.00	29.896 
18:00	85.7	85.7	87.4	50	64.9	0	1	292	0.00	29.894 
18:05	85.5	85.5	86.6	48	63.5	1	3	315	0.00	29.894 
18:10	85.3	85.3	86.6	49	63.9	0	2	315	0.00	29.894 
18:15	84.7	84.7	86.0	50	64.0	1	3	315	0.00	29.887 
18:20	84.5	84.5	85.8	50	63.8	0	1	315	0.00	29.887 
18:25	84.1	84.1	85.3	50	63.4	1	2	315	0.00	29.887 
18:30	83.8	83.8	84.9	50	63.1	1	2	315	0.00	29.891 
18:35	83.6	83.6	84.6	50	63.0	1	2	315	0.00	29.891 
18:40	83.4	83.4	84.4	50	62.8	0	2	315	0.00	29.891 
18:45	83.4	83.4	84.6	51	63.3	0	1	315	0.00	29.893 
18:50	83.2	83.2	84.3	51	63.2	0	1	315	0.00	29.893 
18:55	83.2	83.2	84.1	50	62.6	0	1	315	0.00	29.893 
19:00	83.0	83.0	84.1	51	63.0	0	1	315	0.00	29.884 
19:05	83.4	83.4	84.6	51	63.3	1	2	202	0.00	29.884 
19:10	83.4	83.4	84.8	52	63.9	1	2	315	0.00	29.884 
19:15	83.4	83.4	85.0	53	64.4	1	3	270	0.00	29.893 
19:20	83.0	83.0	84.7	54	64.6	1	2	292	0.00	29.893 
19:25	82.8	82.8	84.6	55	65.0	1	3	292	0.00	29.893 
19:30	82.6	82.6	84.5	56	65.3	0	1	292	0.00	29.897 
19:35	82.4	82.4	84.4	57	65.6	0	2	292	0.00	29.897 
19:40	82.4	82.4	84.6	58	66.1	0	1	292	0.00	29.897 
19:45	82.2	82.2	84.5	59	66.4	0	1	292	0.00	29.899 
19:50	82.0	82.0	84.2	59	66.2	0	2	292	0.00	29.899 
19:55	82.0	82.0	84.2	59	66.2	1	3	292	0.00	29.899 
20:00	81.8	81.8	83.8	58	65.6	1	3	292	0.00	29.900 
20:05	81.8	81.8	84.0	59	66.0	0	3	292	0.00	29.900 
20:10	81.6	81.6	83.9	60	66.3	0	1	292	0.00	29.900 
20:15	81.6	81.6	83.7	59	65.9	0	2	292	0.00	29.897 
20:20	81.6	81.6	83.7	59	65.9	1	3	292	0.00	29.897 
20:25	81.4	81.4	83.4	59	65.7	1	3	292	0.00	29.897 
20:30	81.4	81.4	83.4	59	65.7	0	2	292	0.00	29.896 
20:35	81.2	81.2	83.3	60	66.0	0	2	292	0.00	29.896 
20:40	81.1	81.1	83.2	60	65.9	0	1	292	0.00	29.896 
20:45	80.9	80.9	83.1	61	66.2	0	1	292	0.00	29.899 
20:50	80.9	80.9	83.2	62	66.6	0	1	292	0.00	29.899 
20:55	80.7	80.7	82.9	62	66.4	0	2	292	0.00	29.899 
21:00	80.5	80.5	82.7	62	66.3	0	1	292	0.00	29.907 
21:05	80.5	80.5	82.8	63	66.7	0	0	---	0.00	29.907 
21:10	80.3	80.3	82.5	63	66.5	0	0	---	0.00	29.907 
21:15	80.1	80.1	82.3	63	66.3	0	1	292	0.00	29.902 
21:20	79.9	79.9	82.1	64	66.6	0	0	---	0.00	29.902 
21:25	79.8	79.8	82.0	64	66.5	0	1	292	0.00	29.902 
21:30	79.8	79.8	82.0	64	66.5	0	0	---	0.00	29.902 
21:35	79.6	79.6	81.8	65	66.8	0	0	---	0.00	29.902 
21:40	79.4	79.4	81.6	65	66.6	0	0	---	0.00	29.902 
21:45	79.2	79.2	81.3	65	66.4	0	0	---	0.00	29.900 
21:50	79.0	79.0	81.1	66	66.6	0	0	---	0.00	29.900 
21:55	78.8	78.8	80.9	67	66.9	0	0	---	0.00	29.900 
22:00	78.6	78.6	80.7	67	66.7	0	0	---	0.00	29.900 
22:05	78.5	78.5	80.6	68	67.0	0	0	---	0.00	29.900 
22:10	78.3	78.3	80.3	68	66.8	0	0	---	0.00	29.900 
22:15	78.1	78.1	80.1	68	66.7	0	0	---	0.00	29.894 
22:20	77.9	77.9	79.9	69	66.9	0	0	---	0.00	29.894 
22:25	77.9	77.9	79.9	69	66.9	0	0	---	0.00	29.894 
22:30	77.7	77.7	79.6	69	66.7	0	0	---	0.00	29.893 
22:35	77.7	77.7	79.7	71	67.5	0	0	---	0.00	29.893 
22:40	77.6	77.6	79.5	71	67.4	0	0	---	0.00	29.893 
22:45	77.4	77.4	79.3	71	67.2	0	0	---	0.00	29.892 
22:50	77.4	77.4	79.3	72	67.6	0	0	---	0.00	29.892 
22:55	77.2	77.2	79.0	72	67.5	0	0	---	0.00	29.892 
23:00	77.2	77.2	79.0	73	67.9	0	0	---	0.00	29.884 
23:05	77.2	77.2	79.0	74	68.3	0	0	---	0.00	29.884 
23:10	77.0	77.0	78.7	75	68.5	0	0	---	0.00	29.884 
23:15	76.8	76.8	78.4	76	68.6	0	0	---	0.00	29.872 
23:20	76.7	76.7	78.3	75	68.2	0	0	---	0.00	29.872 
23:25	76.5	76.5	78.0	76	68.4	0	0	---	0.00	29.872 
23:30	76.3	76.3	77.7	76	68.2	0	0	---	0.00	29.885 
23:35	76.1	76.1	77.4	77	68.3	0	0	---	0.00	29.885 
23:40	76.0	76.0	77.2	78	68.6	0	0	---	0.00	29.885 
23:45	76.0	76.0	77.2	78	68.6	0	0	---	0.00	29.888 
23:50	75.8	75.8	76.8	79	68.8	0	0	---	0.00	29.888 
23:55	75.8	75.8	76.8	79	68.8	0	0	---	0.00	29.888 

CoCoRaHS
IN-AL-39
A2 Web Hosting
Creative Commons License
GoDaddy
search engine by freefind advanced

loaded 2018-11-17 18:50:18 • last modified 2010-11-18 10:43:29
Privacy PolicyDisclaimer
• wx.awcolley.com is powered by PmWiki v.2002016 •
• all content (unless otherwise noted) © 2018 A W Colley